Time;durP1;ratioP1;P1;durP2;ratioP2;P2;SDS_P1;SDS_P2;PMS_P1;PMS_P2;Temp;Humidity;BMP_temperature;BMP_pressure;BME280_temperature;BME280_humidity;BME280_pressure;Samples;Min_cycle;Max_cycle;Signal;HPM_P1;HPM_P2
2021/12/14 00:05:53;;;;;;;10.57;6.70;;;9.40;99.90;;;;;;20984503;28;20567;-66
2021/12/14 00:15:56;;;;;;;17.07;10.03;;;9.40;99.90;;;;;;20983916;28;20237;-67
2021/12/14 00:25:58;;;;;;;15.17;9.20;;;9.40;99.90;;;;;;20983441;28;20222;-70
2021/12/14 00:36:04;;;;;;;12.63;8.60;;;9.40;99.90;;;;;;20982170;28;20204;-80
2021/12/14 00:46:07;;;;;;;12.27;8.00;;;9.40;99.90;;;;;;20981363;28;20223;-80
2021/12/14 00:56:12;;;;;;;11.77;7.60;;;9.30;99.90;;;;;;20980348;28;20299;-76
2021/12/14 01:06:16;;;;;;;12.87;8.30;;;9.10;99.90;;;;;;20982798;28;20238;-75
2021/12/14 01:16:33;;;;;;;11.17;8.13;;;9.10;99.90;;;;;;20931974;28;20258;-68
2021/12/14 01:26:39;;;;;;;11.53;8.07;;;9.00;99.90;;;;;;20923514;28;20211;-72
2021/12/14 01:36:50;;;;;;;10.60;7.10;;;8.90;99.90;;;;;;20922333;28;20758;-67
2021/12/14 01:46:56;;;;;;;9.63;7.30;;;8.90;99.90;;;;;;20921498;28;20211;-66
2021/12/14 01:57:03;;;;;;;10.17;7.60;;;8.80;99.90;;;;;;20921008;28;20239;-83
2021/12/14 02:07:06;;;;;;;10.77;7.10;;;8.60;99.90;;;;;;20926604;28;20212;-78
2021/12/14 02:17:11;;;;;;;10.93;7.33;;;8.70;99.90;;;;;;20919669;28;20285;-80
2021/12/14 02:27:12;;;;;;;13.70;8.07;;;8.70;99.90;;;;;;20919348;28;20243;-79
2021/12/14 02:37:15;;;;;;;14.23;8.30;;;8.60;99.90;;;;;;20917824;28;20255;-80
2021/12/14 02:47:18;;;;;;;12.33;7.97;;;8.60;99.90;;;;;;20917260;28;20206;-82
2021/12/14 02:57:25;;;;;;;15.33;8.67;;;8.50;99.90;;;;;;20916219;28;20661;-72
2021/12/14 03:07:31;;;;;;;19.70;10.37;;;8.50;99.90;;;;;;20915380;28;20210;-80
2021/12/14 03:17:34;;;;;;;24.20;12.30;;;8.50;99.90;;;;;;20916614;28;20228;-81
2021/12/14 03:27:40;;;;;;;28.33;15.00;;;8.50;99.90;;;;;;20914422;28;20206;-78
2021/12/14 03:37:42;;;;;;;31.17;15.37;;;8.40;99.90;;;;;;20927924;28;20572;-80
2021/12/14 03:47:52;;;;;;;26.10;13.43;;;8.50;99.90;;;;;;20921113;28;20204;-78
2021/12/14 03:57:53;;;;;;;22.07;12.07;;;8.50;99.90;;;;;;20912080;28;20230;-81
2021/12/14 04:07:55;;;;;;;20.57;11.27;;;8.50;99.90;;;;;;20912408;28;20210;-67
2021/12/14 04:17:57;;;;;;;19.10;10.27;;;8.50;99.90;;;;;;20916149;28;20237;-80
2021/12/14 04:28:03;;;;;;;14.80;8.97;;;8.50;99.90;;;;;;20912394;28;20208;-80
2021/12/14 04:38:14;;;;;;;14.00;7.80;;;8.50;99.90;;;;;;20912201;28;20598;-81
2021/12/14 04:58:40;;;;;;;14.17;8.23;;;8.50;99.90;;;;;;20928908;28;20664;-80
2021/12/14 05:11:14;;;;;;;12.23;7.60;;;8.50;99.90;;;;;;20990614;28;20659;-80
2021/12/14 05:21:34;;;;;;;12.97;7.93;;;8.50;99.90;;;;;;20983435;28;20207;-79
2021/12/14 05:31:45;;;;;;;13.07;7.43;;;8.50;99.90;;;;;;20982625;28;20212;-78
2021/12/14 05:52:11;;;;;;;13.30;8.20;;;8.50;99.90;;;;;;20986933;28;20210;-80
2021/12/14 06:02:14;;;;;;;13.85;8.73;;;8.50;99.90;;;;;;20983788;28;20434;-80
2021/12/14 06:12:23;;;;;;;11.43;6.87;;;8.60;99.90;;;;;;20980157;28;20214;-80
2021/12/14 06:22:25;;;;;;;11.30;6.67;;;8.60;99.90;;;;;;20924073;28;20240;-81
2021/12/14 06:32:34;;;;;;;12.93;7.07;;;8.60;99.90;;;;;;20923525;28;20658;-80
2021/12/14 06:42:42;;;;;;;14.90;7.57;;;8.60;99.90;;;;;;20923367;28;20704;-75
2021/12/14 06:53:00;;;;;;;15.07;9.57;;;8.60;99.90;;;;;;20905426;28;21000;-79
2021/12/14 07:03:05;;;;;;;10.60;7.07;;;8.80;99.90;;;;;;20919805;28;20715;-78
2021/12/14 07:13:17;;;;;;;14.03;8.27;;;8.80;99.90;;;;;;20919161;28;20463;-69
2021/12/14 07:23:26;;;;;;;11.37;7.60;;;8.70;99.90;;;;;;20906853;28;20312;-74
2021/12/14 07:33:31;;;;;;;13.53;8.30;;;8.70;99.90;;;;;;20917234;28;20211;-72
2021/12/14 07:43:56;;;;;;;13.23;9.17;;;8.70;99.90;;;;;;20914070;28;20292;-76
2021/12/14 07:54:12;;;;;;;14.03;8.57;;;8.60;99.90;;;;;;20914871;28;20214;-74
2021/12/14 08:04:13;;;;;;;18.67;9.67;;;8.60;99.90;;;;;;20915190;28;20271;-73
2021/12/14 08:14:26;;;;;;;41.10;24.67;;;8.70;99.90;;;;;;20914143;28;20211;-64
2021/12/14 08:24:31;;;;;;;21.37;11.20;;;8.80;99.90;;;;;;20913767;28;20292;-70
2021/12/14 08:34:39;;;;;;;15.93;10.83;;;8.90;99.90;;;;;;20912374;28;20570;-71
2021/12/14 08:45:24;;;;;;;18.57;8.60;;;9.00;99.90;;;;;;20860973;28;20271;-73
2021/12/14 08:55:32;;;;;;;16.03;10.03;;;9.00;99.90;;;;;;20829503;28;20216;-67
2021/12/14 09:05:44;;;;;;;12.47;8.70;;;9.10;99.90;;;;;;20828209;28;20584;-69
2021/12/14 09:15:47;;;;;;;12.67;8.00;;;9.20;99.90;;;;;;20827902;28;20223;-67
2021/12/14 09:25:51;;;;;;;11.70;7.47;;;9.20;99.90;;;;;;20827817;28;20311;-68
2021/12/14 09:35:55;;;;;;;12.50;7.37;;;9.20;99.90;;;;;;20863055;28;20221;-62
2021/12/14 09:46:00;;;;;;;13.70;8.23;;;9.30;99.90;;;;;;20908823;28;20232;-63
2021/12/14 09:56:03;;;;;;;13.90;8.40;;;9.20;99.90;;;;;;20921880;28;20208;-62
2021/12/14 10:06:10;;;;;;;12.57;8.07;;;9.40;99.90;;;;;;20923913;28;20244;-65
2021/12/14 10:16:12;;;;;;;13.30;8.67;;;9.40;99.90;;;;;;20922334;28;20209;-67
2021/12/14 10:26:15;;;;;;;13.83;8.87;;;9.40;99.90;;;;;;20922621;28;20235;-63
2021/12/14 10:36:28;;;;;;;10.40;7.33;;;9.30;99.90;;;;;;20921868;28;20204;-71
2021/12/14 10:46:34;;;;;;;14.37;8.60;;;9.30;99.90;;;;;;20920694;28;20285;-62
2021/12/14 10:56:49;;;;;;;13.33;9.13;;;9.30;99.90;;;;;;20920196;28;20659;-63
2021/12/14 11:06:53;;;;;;;14.73;9.50;;;9.30;99.90;;;;;;20918843;28;20240;-71
2021/12/14 11:27:31;;;;;;;14.80;10.20;;;9.40;99.80;;;;;;20909425;28;20239;-70
2021/12/14 11:37:34;;;;;;;18.30;11.27;;;9.40;99.90;;;;;;20916102;28;20210;-69
2021/12/14 11:47:49;;;;;;;21.37;11.37;;;9.50;99.90;;;;;;20914874;28;20235;-70
2021/12/14 11:58:16;;;;;;;20.77;12.43;;;9.40;99.90;;;;;;20914470;28;20246;-68
2021/12/14 12:19:09;;;;;;;20.53;13.07;;;9.40;99.90;;;;;;20911973;28;20652;-66
2021/12/14 12:29:16;;;;;;;17.27;11.60;;;9.40;99.90;;;;;;20860152;28;20281;-65
2021/12/14 12:39:22;;;;;;;20.90;12.33;;;9.40;99.90;;;;;;20908208;28;20207;-68
2021/12/14 12:49:25;;;;;;;18.27;12.70;;;9.40;99.90;;;;;;20911819;28;20234;-77
2021/12/14 12:59:57;;;;;;;18.10;12.27;;;9.40;99.90;;;;;;20910697;28;20208;-66
2021/12/14 13:10:03;;;;;;;19.67;12.70;;;9.40;99.90;;;;;;20910954;28;20336;-65
2021/12/14 13:20:08;;;;;;;21.20;12.37;;;9.40;99.90;;;;;;20908912;28;20214;-67
2021/12/14 13:30:11;;;;;;;20.63;13.33;;;9.50;99.90;;;;;;20924254;28;20595;-65
2021/12/14 13:40:18;;;;;;;18.77;13.33;;;9.60;99.90;;;;;;20950420;28;20234;-66
2021/12/14 13:50:30;;;;;;;20.30;13.03;;;9.70;99.90;;;;;;20927800;28;20235;-66
2021/12/14 14:00:44;;;;;;;19.57;13.50;;;9.60;99.90;;;;;;20925996;28;20720;-73
2021/12/14 14:10:47;;;;;;;21.70;14.87;;;9.60;99.90;;;;;;20924478;28;20242;-70
2021/12/14 14:20:51;;;;;;;25.10;14.97;;;9.50;99.90;;;;;;20923539;28;20200;-73
2021/12/14 14:30:57;;;;;;;20.73;15.17;;;9.50;99.90;;;;;;20922639;28;20239;-71
2021/12/14 14:41:04;;;;;;;22.40;15.17;;;9.50;99.90;;;;;;20920240;28;20215;-69
2021/12/14 14:51:05;;;;;;;21.37;17.37;;;9.50;99.90;;;;;;20916784;28;20464;-66
2021/12/14 15:01:18;;;;;;;24.83;16.10;;;9.70;99.90;;;;;;20919930;28;20600;-69
2021/12/14 15:11:32;;;;;;;23.53;15.23;;;9.60;99.90;;;;;;20919372;28;20643;-71
2021/12/14 15:21:45;;;;;;;24.23;15.60;;;9.40;99.90;;;;;;20918109;28;20269;-71
2021/12/14 15:32:12;;;;;;;27.37;15.50;;;9.50;99.90;;;;;;20916920;28;20228;-68
2021/12/14 15:42:20;;;;;;;29.23;16.73;;;9.40;99.90;;;;;;20879051;28;20718;-74
2021/12/14 15:52:23;;;;;;;22.63;15.87;;;9.40;99.90;;;;;;20914264;28;20605;-72
2021/12/14 16:02:28;;;;;;;32.20;16.13;;;9.30;99.90;;;;;;20845876;28;20239;-72
2021/12/14 16:22:36;;;;;;;24.83;13.67;;;9.30;99.90;;;;;;20831649;28;20258;-67
2021/12/14 16:32:37;;;;;;;20.50;13.30;;;9.30;99.90;;;;;;20847540;28;20588;-65
2021/12/14 16:42:39;;;;;;;19.60;13.87;;;9.30;99.90;;;;;;20912758;28;20277;-73
2021/12/14 16:52:41;;;;;;;22.27;15.37;;;9.30;99.90;;;;;;20912625;28;20221;-71
2021/12/14 17:02:43;;;;;;;22.27;13.47;;;9.30;99.90;;;;;;20911240;28;20776;-72
2021/12/14 17:12:47;;;;;;;22.70;14.93;;;9.40;99.90;;;;;;20911059;28;20254;-63
2021/12/14 17:22:49;;;;;;;24.43;15.77;;;9.30;99.90;;;;;;20911377;28;20234;-63
2021/12/14 17:32:51;;;;;;;22.37;14.70;;;9.10;99.90;;;;;;20904432;28;20658;-63
2021/12/14 17:42:57;;;;;;;27.97;16.80;;;9.20;99.90;;;;;;20908920;28;20296;-66
2021/12/14 17:53:07;;;;;;;24.83;16.00;;;9.20;99.90;;;;;;20910699;28;20211;-68
2021/12/14 18:03:21;;;;;;;21.20;14.50;;;9.10;99.90;;;;;;20876259;28;20289;-70
2021/12/14 18:13:28;;;;;;;23.90;16.33;;;9.00;99.90;;;;;;20835336;28;20238;-71
2021/12/14 18:23:33;;;;;;;23.23;15.37;;;9.10;99.90;;;;;;20968525;28;20239;-72
2021/12/14 18:33:36;;;;;;;24.77;15.13;;;9.20;99.90;;;;;;21005591;28;20206;-70
2021/12/14 18:43:40;;;;;;;25.67;17.03;;;9.10;99.90;;;;;;21005090;28;20291;-70
2021/12/14 18:53:43;;;;;;;28.83;16.83;;;9.00;99.90;;;;;;20967176;28;20260;-70
2021/12/14 19:06:56;;;;;;;25.13;15.77;;;9.10;99.90;;;;;;21133014;28;20924;-70
2021/12/14 19:17:04;;;;;;;27.30;16.20;;;9.10;99.90;;;;;;21098358;28;20307;-70
2021/12/14 19:27:10;;;;;;;23.73;15.70;;;9.10;99.90;;;;;;21065880;28;20722;-72
2021/12/14 19:37:21;;;;;;;25.20;16.07;;;9.10;99.90;;;;;;21065458;28;20329;-71
2021/12/14 19:47:31;;;;;;;24.93;16.20;;;9.00;99.90;;;;;;21064248;28;20213;-72
2021/12/14 19:57:37;;;;;;;24.20;15.73;;;9.00;99.90;;;;;;21063367;28;20246;-73
2021/12/14 20:07:40;;;;;;;22.17;15.40;;;8.90;99.90;;;;;;21022861;28;20218;-70
2021/12/14 20:17:45;;;;;;;19.77;13.97;;;9.00;99.90;;;;;;21009580;28;20238;-67
2021/12/14 20:27:54;;;;;;;23.87;14.17;;;9.00;99.90;;;;;;20929921;28;20200;-71
2021/12/14 20:37:59;;;;;;;20.57;14.53;;;9.10;99.90;;;;;;20922002;28;20236;-71
2021/12/14 20:48:02;;;;;;;22.33;14.77;;;9.10;99.90;;;;;;20921154;28;20242;-68
2021/12/14 20:58:10;;;;;;;23.47;16.40;;;9.20;99.90;;;;;;20943428;28;20503;-67
2021/12/14 21:08:16;;;;;;;22.63;14.80;;;9.20;99.90;;;;;;21002535;28;20211;-70
2021/12/14 21:18:18;;;;;;;24.77;15.40;;;9.20;99.90;;;;;;21001789;28;20707;-74
2021/12/14 21:28:29;;;;;;;22.20;14.50;;;9.20;99.90;;;;;;20999905;28;20212;-65
2021/12/14 21:38:35;;;;;;;23.63;14.77;;;9.30;99.90;;;;;;21000604;28;20287;-65
2021/12/14 21:48:40;;;;;;;21.93;14.13;;;9.20;99.90;;;;;;20998941;28;20207;-65
2021/12/14 21:58:41;;;;;;;26.00;16.50;;;9.10;99.90;;;;;;20968548;28;20282;-65
2021/12/14 22:08:43;;;;;;;28.67;16.93;;;9.00;99.90;;;;;;20914665;28;20278;-70
2021/12/14 22:18:48;;;;;;;28.00;20.77;;;8.80;99.90;;;;;;20990099;28;20448;-72
2021/12/14 22:28:51;;;;;;;25.57;16.27;;;9.30;99.90;;;;;;21080139;28;20302;-72
2021/12/14 22:48:49;;;;;;;22.40;14.33;;;8.30;99.90;;;;;;20984288;28;20565;-64
2021/12/14 22:58:52;;;;;;;25.30;14.70;;;8.20;99.90;;;;;;20983422;28;20216;-64
2021/12/14 23:08:55;;;;;;;27.33;14.63;;;8.10;99.90;;;;;;20982996;28;20219;-64
2021/12/14 23:19:07;;;;;;;26.50;14.53;;;8.20;99.90;;;;;;20948753;28;20214;-66
2021/12/14 23:29:08;;;;;;;29.03;16.93;;;8.20;99.90;;;;;;20895898;28;20209;-69
2021/12/14 23:39:11;;;;;;;31.43;16.67;;;8.20;99.90;;;;;;20897751;28;20580;-69
2021/12/14 23:49:12;;;;;;;29.10;16.57;;;8.20;99.90;;;;;;20896907;28;20622;-64
2021/12/14 23:59:17;;;;;;;32.73;17.27;;;8.40;99.90;;;;;;20846148;28;20654;-65
